Impacts TAF Board INFO
FOR SITUATIONAL AWARENESS. NOT TO BE USED FOR FLIGHT PLANNING PURPOSES.
IDs:

KMCO - Orlando Intl, FL, US

Issued at 1141 UTC 18 Dec 2017
Updated at 1249 UTC 18 Dec 2017
Potential Impact None Slight Moderate High
Time1216Z 18/13Z 18/14Z 18/15Z 18/16Z 18/17Z 18/18Z 18/19Z 18/20Z 18/21Z 18/22Z 18/23Z 19/00Z 19/01Z>>
Type OBS PRVL
  [TEMP]  
PRVL
  [TEMP]  
PRVL PRVL PRVL PRVL PRVL PRVL PRVL PRVL PRVL PRVL PRVL
VIS 0.25 0.25
  [1]  
0.25
  [1]  
>6 >6 >6 >6 >6 >6 >6 >6 >6 >6 >6
CIG 2 2
  [8]  
2
  [8]  
-- -- -- -- -- -- -- -- -- -- --
Cover OVX OVX
  [BKN]  
OVX
  [BKN]  
SCT SCT SCT SCT SCT SCT SCT SCT SCT SCT SCT
FltCat LIFR LIFR
  [IFR]  
LIFR
  [IFR]  
VFR VFR VFR VFR VFR VFR VFR VFR VFR VFR VFR
WX FG FG
  [BR]  
FG
  [BR]  
-- -- -- -- -- -- -- -- -- -- --
WDir 200 180
[180]
180
[180]
180 180 180 220 220 220 220 220 220 100 100
WSpd 3 4
  [4]  
4
  [4]  
5 5 5 5 5 5 5 5 5 4 4
WGst -- --
  [--]  
--
  [--]  
-- -- -- -- -- -- -- -- -- -- --

Raw TAF
KMCO 181141Z 1812/1918 18004KT 1/4SM FG VV002
  TEMPO 1813/1815 1SM BR BKN008
  FM181500 18005KT P6SM SCT015 SCT250
  FM181800 22005KT P6SM SCT045 SCT250
  FM190000 10004KT P6SM FEW045 SCT250
  FM190600 VRB02KT 3SM BR SCT004
  FM191500 VRB05KT P6SM SCT030


Raw METAR
KMCO 181216Z 20003KT 1/4SM R35L/1800V2200FT FG VV002 17/17 A3023 RMK AO2 TWR VIS 1/2 T01720172 $
KMCO 181153Z 19004KT 1/4SM R35L/2600V3000FT FG VV002 18/18 A3022 RMK AO2 TWR VIS 1/2 SLP231 T01780178 10178 20144 53002 $
KMCO 181142Z 18005KT 1/2SM R35L/2600V3000FT FG VV002 18/18 A3021 RMK AO2 T01780178 $
KMCO 181103Z 18004KT 1/4SM R35L/1800V2800FT FG VV002 16/16 A3020 RMK AO2 TWR VIS 1/2 T01610161 $
KMCO 181053Z 18005KT 1/2SM R35L/1600V2200FT FG BKN002 15/15 A3020 RMK AO2 SLP225 VIS N 1 1/2 T01500150 $
KMCO 181046Z 19005KT 1/2SM R35L/2000V2200FT FG BKN002 16/16 A3020 RMK AO2 VIS N 1 1/2 T01610161 $
KMCO 181032Z 00000KT 1/4SM R35L/2000FT FG FEW003 16/16 A3020 RMK AO2 VIS N 1 1/2 T01610161 $
KMCO 181017Z 00000KT 3SM R35L/1600V2000FT BR BCFG CLR 16/16 A3020 RMK AO2 VIS E-SE 1 T01610161 $
KMCO 181001Z 00000KT 3SM R35L/1800VP6000FT BR BCFG CLR 16/16 A3020 RMK AO2 VIS E-SE 1 T01610161 $
KMCO 180953Z 00000KT 2SM R35L/3000VP6000FT BR CLR 16/16 A3020 RMK AO2 SLP225 VIS N-NE 3 E 1/2 SE-S 1 1/2 T01610161 $
KMCO 180940Z 00000KT 3/4SM R35L/1600V2600FT BR CLR 16/16 A3020 RMK AO2 VIS N 2 T01610161 $
KMCO 180937Z 00000KT 3/4SM R35L/1600V2200FT BR CLR 16/16 A3020 RMK AO2 VIS N 2 T01610161 $

METAR Board
Radar Display
Forecast Discussion

FOR SITUATIONAL AWARENESS. NOT TO BE USED FOR FLIGHT PLANNING PURPOSES.